Time;durP1;ratioP1;P1;durP2;ratioP2;P2;SDS_P1;SDS_P2;PMS_P1;PMS_P2;Temp;Humidity;BMP_temperature;BMP_pressure;BME280_temperature;BME280_humidity;BME280_pressure;Samples;Min_cycle;Max_cycle;Signal;HPM_P1;HPM_P2
2023/04/07 00:01:56;;;;;;;;;;;7.20;99.90;;;;;;6211073;23;19915;-89
2023/04/07 00:04:21;;;;;;;;;;;7.10;99.90;;;;;;6209988;23;19911;-89
2023/04/07 00:06:47;;;;;;;;;;;7.20;99.90;;;;;;6236167;23;20252;-88
2023/04/07 00:09:12;;;;;;;;;;;7.10;99.90;;;;;;6237614;23;20335;-89
2023/04/07 00:11:38;;;;;;;;;;;6.70;99.90;;;;;;6212912;23;19904;-88
2023/04/07 00:14:03;;;;;;;;;;;7.10;99.90;;;;;;6236747;23;20107;-89
2023/04/07 00:16:29;;;;;;;;;;;7.00;99.90;;;;;;6213088;23;19954;-88
2023/04/07 00:18:54;;;;;;;;;;;6.90;99.90;;;;;;6213175;23;19935;-89
2023/04/07 00:21:20;;;;;;;;;;;6.90;99.90;;;;;;6212585;23;19908;-89
2023/04/07 00:23:46;;;;;;;;;;;6.80;99.90;;;;;;6212941;23;19916;-88
2023/04/07 00:26:12;;;;;;;;;;;6.80;99.90;;;;;;6213837;23;19904;-88
2023/04/07 00:28:37;;;;;;;;;;;6.80;99.90;;;;;;6212510;23;20296;-89
2023/04/07 00:31:03;;;;;;;;;;;6.70;99.90;;;;;;6213041;23;20329;-89
2023/04/07 00:33:28;;;;;;;;;;;6.70;99.90;;;;;;6213114;23;19911;-89
2023/04/07 00:35:56;;;;;;;;;;;6.60;99.90;;;;;;6212888;23;19910;-88
2023/04/07 00:38:22;;;;;;;;;;;6.50;99.90;;;;;;6211102;23;19990;-89
2023/04/07 00:40:47;;;;;;;;;;;6.40;99.90;;;;;;6212547;23;20230;-89
2023/04/07 00:43:13;;;;;;;;;;;8.30;99.90;;;;;;6236802;23;20007;-88
2023/04/07 00:45:38;;;;;;;;;;;6.50;99.90;;;;;;6236765;23;19991;-88
2023/04/07 00:48:04;;;;;;;;;;;6.50;99.90;;;;;;6212696;23;19904;-88
2023/04/07 00:50:30;;;;;;;;;;;6.40;99.90;;;;;;6212343;23;19907;-88
2023/04/07 00:52:55;;;;;;;;;;;6.40;99.90;;;;;;6212516;23;19904;-88
2023/04/07 00:55:21;;;;;;;;;;;6.50;99.90;;;;;;6212579;23;19911;-89
2023/04/07 00:57:47;;;;;;;;;;;6.30;99.90;;;;;;6212483;23;19904;-87
2023/04/07 01:00:13;;;;;;;;;;;6.50;99.90;;;;;;6213796;23;19904;-89
2023/04/07 01:02:58;;;;;;;;;;;6.60;99.90;;;;;;6211988;23;19919;-89
2023/04/07 01:05:27;;;;;;;;;;;7.70;99.90;;;;;;6212110;23;19904;-89
2023/04/07 01:07:55;;;;;;;;;;;6.60;99.90;;;;;;6212290;23;19904;-88
2023/04/07 01:10:32;;;;;;;;;;;6.50;99.90;;;;;;6212502;23;19904;-89
2023/04/07 01:13:04;;;;;;;;;;;6.50;99.90;;;;;;6212577;23;20324;-88
2023/04/07 01:15:30;;;;;;;;;;;6.60;99.90;;;;;;6212392;23;19908;-89
2023/04/07 01:18:03;;;;;;;;;;;6.60;99.90;;;;;;6211872;23;20245;-88
2023/04/07 01:20:31;;;;;;;;;;;6.60;99.90;;;;;;6212301;23;19908;-88
2023/04/07 01:23:01;;;;;;;;;;;6.50;99.90;;;;;;6212546;23;19918;-89
2023/04/07 01:25:35;;;;;;;;;;;6.50;99.90;;;;;;6212572;23;19904;-89
2023/04/07 01:28:02;;;;;;;;;;;6.40;99.90;;;;;;6212416;23;19990;-89
2023/04/07 01:30:29;;;;;;;;;;;6.40;99.90;;;;;;6212407;23;19904;-89
2023/04/07 01:32:56;;;;;;;;;;;6.30;99.90;;;;;;6210621;23;19911;-89
2023/04/07 01:35:22;;;;;;;;;;;6.40;99.90;;;;;;6212493;23;19904;-89
2023/04/07 01:37:49;;;;;;;;;;;6.40;99.90;;;;;;6212255;23;20239;-89
2023/04/07 01:40:15;;;;;;;;;;;6.50;99.90;;;;;;6212896;23;19903;-88
2023/04/07 01:42:41;;;;;;;;;;;7.70;99.90;;;;;;6212005;23;19911;-88
2023/04/07 01:45:07;;;;;;;;;;;6.90;99.90;;;;;;6212197;23;20354;-88
2023/04/07 01:47:36;;;;;;;;;;;6.30;99.90;;;;;;6210591;23;20244;-88
2023/04/07 01:50:04;;;;;;;;;;;6.30;99.90;;;;;;6212298;23;19904;-88
2023/04/07 01:52:30;;;;;;;;;;;6.30;99.90;;;;;;6212329;23;20453;-88
2023/04/07 01:54:56;;;;;;;;;;;6.30;99.90;;;;;;6212282;23;19910;-88
2023/04/07 01:57:22;;;;;;;;;;;6.40;99.90;;;;;;6212024;23;20337;-89
2023/04/07 01:59:47;;;;;;;;;;;6.50;99.90;;;;;;6212954;23;19903;-88
2023/04/07 02:02:13;;;;;;;;;;;6.50;99.90;;;;;;6211194;23;19908;-89
2023/04/07 02:04:58;;;;;;;;;;;6.50;99.90;;;;;;6212177;23;20457;-88
2023/04/07 02:07:30;;;;;;;;;;;6.50;99.90;;;;;;6211996;23;19943;-89
2023/04/07 02:09:57;;;;;;;;;;;6.40;99.90;;;;;;6211954;23;20031;-89
2023/04/07 02:12:23;;;;;;;;;;;6.50;99.90;;;;;;6211852;23;19911;-88
2023/04/07 02:14:48;;;;;;;;;;;6.40;99.90;;;;;;6211036;23;20343;-88
2023/04/07 02:17:15;;;;;;;;;;;6.40;99.90;;;;;;6212029;23;19904;-88
2023/04/07 02:19:41;;;;;;;;;;;6.50;99.90;;;;;;6211980;23;19912;-89
2023/04/07 02:22:07;;;;;;;;;;;6.50;99.90;;;;;;6211478;23;20329;-88
2023/04/07 02:24:32;;;;;;;;;;;6.40;99.90;;;;;;6211599;23;19903;-88
2023/04/07 02:27:00;;;;;;;;;;;6.50;99.90;;;;;;6211369;23;19916;-88
2023/04/07 02:29:26;;;;;;;;;;;6.50;99.90;;;;;;6210275;23;19904;-88
2023/04/07 02:31:51;;;;;;;;;;;6.40;99.90;;;;;;6211974;23;20295;-88
2023/04/07 02:34:17;;;;;;;;;;;6.30;99.90;;;;;;6212713;23;19904;-88
2023/04/07 02:36:42;;;;;;;;;;;6.40;99.90;;;;;;6235413;23;19903;-88
2023/04/07 02:39:08;;;;;;;;;;;6.30;99.90;;;;;;6211242;23;19904;-89
2023/04/07 02:41:34;;;;;;;;;;;6.40;99.90;;;;;;6211510;23;19904;-88
2023/04/07 02:43:59;;;;;;;;;;;6.40;99.90;;;;;;6211531;23;19912;-88
2023/04/07 02:46:25;;;;;;;;;;;6.30;99.90;;;;;;6235376;23;19911;-87
2023/04/07 02:48:51;;;;;;;;;;;6.30;99.90;;;;;;6212310;23;20236;-88
2023/04/07 02:51:16;;;;;;;;;;;6.30;99.90;;;;;;6212313;23;20276;-88
2023/04/07 02:53:42;;;;;;;;;;;6.20;99.90;;;;;;6209939;23;19910;-88
2023/04/07 02:56:07;;;;;;;;;;;6.00;99.90;;;;;;6209842;23;19904;-88
2023/04/07 02:58:33;;;;;;;;;;;6.30;99.90;;;;;;6211355;23;19904;-88
2023/04/07 03:00:58;;;;;;;;;;;6.30;99.90;;;;;;6210777;23;19991;-88
2023/04/07 03:03:24;;;;;;;;;;;6.30;99.90;;;;;;6213001;23;19912;-88
2023/04/07 03:05:50;;;;;;;;;;;6.30;99.90;;;;;;6212113;23;20341;-89
2023/04/07 03:08:15;;;;;;;;;;;6.40;99.90;;;;;;6210396;23;19978;-88
2023/04/07 03:10:41;;;;;;;;;;;6.30;99.90;;;;;;6210837;23;19904;-87
2023/04/07 03:13:07;;;;;;;;;;;6.40;99.90;;;;;;6211134;23;19940;-88
2023/04/07 03:15:32;;;;;;;;;;;6.30;99.90;;;;;;6211046;23;19904;-89
2023/04/07 03:17:58;;;;;;;;;;;6.40;99.90;;;;;;6209387;23;19979;-87
2023/04/07 03:20:23;;;;;;;;;;;6.30;99.90;;;;;;6210913;23;19904;-87
2023/04/07 03:22:49;;;;;;;;;;;6.30;99.90;;;;;;6235713;23;19934;-88
2023/04/07 03:25:15;;;;;;;;;;;6.30;99.90;;;;;;6210320;23;19908;-88
2023/04/07 03:27:40;;;;;;;;;;;;;;;;;;6210858;23;19923;-88
2023/04/07 03:30:06;;;;;;;;;;;6.30;99.90;;;;;;6210871;23;20218;-88
2023/04/07 03:32:32;;;;;;;;;;;6.20;99.90;;;;;;6209301;23;19904;-87
2023/04/07 03:34:57;;;;;;;;;;;6.20;99.90;;;;;;6209606;23;20408;-88
2023/04/07 03:37:23;;;;;;;;;;;6.20;99.90;;;;;;6212130;23;19911;-88
2023/04/07 03:39:48;;;;;;;;;;;5.90;99.90;;;;;;6211069;23;19974;-88
2023/04/07 03:42:14;;;;;;;;;;;6.10;99.90;;;;;;6210914;23;20138;-88
2023/04/07 03:44:39;;;;;;;;;;;6.00;99.90;;;;;;6211431;23;20234;-88
2023/04/07 03:47:05;;;;;;;;;;;6.00;99.90;;;;;;6210624;23;19904;-87
2023/04/07 03:49:31;;;;;;;;;;;6.00;99.90;;;;;;6211252;23;20295;-88
2023/04/07 03:51:57;;;;;;;;;;;6.00;99.90;;;;;;6211190;23;19904;-89
2023/04/07 03:54:22;;;;;;;;;;;6.90;99.90;;;;;;6212054;23;19958;-88
2023/04/07 03:56:48;;;;;;;;;;;6.00;99.90;;;;;;6210879;23;19904;-88
2023/04/07 03:59:13;;;;;;;;;;;6.00;99.90;;;;;;6211095;23;19904;-87
2023/04/07 04:01:39;;;;;;;;;;;6.00;99.90;;;;;;6210507;23;20029;-89
2023/04/07 04:04:04;;;;;;;;;;;6.10;99.90;;;;;;6209401;23;19911;-88
2023/04/07 04:06:30;;;;;;;;;;;6.10;99.90;;;;;;6211072;23;20360;-89
2023/04/07 04:08:56;;;;;;;;;;;6.10;99.90;;;;;;6211708;23;19911;-88
2023/04/07 04:11:21;;;;;;;;;;;6.10;99.90;;;;;;6212042;23;19904;-89
2023/04/07 04:13:47;;;;;;;;;;;6.10;99.90;;;;;;6210098;23;19908;-91
2023/04/07 04:16:12;;;;;;;;;;;6.10;99.90;;;;;;6211300;23;20328;-92
2023/04/07 04:18:38;;;;;;;;;;;6.20;99.90;;;;;;6235669;23;19904;-90
2023/04/07 04:21:03;;;;;;;;;;;6.30;99.90;;;;;;6210378;23;19904;-91
2023/04/07 04:23:29;;;;;;;;;;;6.30;99.90;;;;;;6211013;23;19942;-90
2023/04/07 04:25:55;;;;;;;;;;;6.30;99.90;;;;;;6210718;23;20247;-89
2023/04/07 04:28:21;;;;;;;;;;;6.30;99.90;;;;;;6211359;23;19912;-90
2023/04/07 04:30:47;;;;;;;;;;;6.30;99.90;;;;;;6209859;23;20191;-90
2023/04/07 04:33:12;;;;;;;;;;;6.10;99.90;;;;;;6211228;23;19904;-91
2023/04/07 04:35:38;;;;;;;;;;;6.10;99.90;;;;;;6210796;23;19904;-90
2023/04/07 04:38:04;;;;;;;;;;;6.20;99.90;;;;;;6208301;23;19904;-90
2023/04/07 04:40:29;;;;;;;;;;;6.20;99.90;;;;;;6234529;23;19936;-90
2023/04/07 04:42:55;;;;;;;;;;;6.10;99.90;;;;;;6210708;23;19947;-90
2023/04/07 04:45:20;;;;;;;;;;;6.10;99.90;;;;;;6211624;23;19936;-90
2023/04/07 04:47:46;;;;;;;;;;;6.00;99.90;;;;;;6211524;23;19908;-90
2023/04/07 04:50:11;;;;;;;;;;;5.90;99.90;;;;;;6210369;23;20352;-90
2023/04/07 04:52:39;;;;;;;;;;;;;;;;;;6212904;23;19940;-91
2023/04/07 04:55:05;;;;;;;;;;;6.10;99.90;;;;;;6213215;23;19958;-90
2023/04/07 04:57:33;;;;;;;;;;;5.80;99.90;;;;;;6204449;23;19943;-91
2023/04/07 04:59:59;;;;;;;;;;;5.90;99.90;;;;;;6210034;23;19904;-90
2023/04/07 05:02:25;;;;;;;;;;;5.90;99.90;;;;;;6213310;23;19966;-91
2023/04/07 05:04:50;;;;;;;;;;;5.80;99.90;;;;;;6211017;23;19908;-89
2023/04/07 05:07:16;;;;;;;;;;;5.60;99.90;;;;;;6210783;23;19904;-90
2023/04/07 05:09:41;;;;;;;;;;;5.60;99.90;;;;;;6210905;23;20248;-92
2023/04/07 05:12:07;;;;;;;;;;;5.60;99.90;;;;;;6211148;23;19904;-91
2023/04/07 05:14:32;;;;;;;;;;;5.50;99.90;;;;;;6211488;23;19950;-91
2023/04/07 05:16:59;;;;;;;;;;;5.50;99.90;;;;;;6213918;23;20325;-90
2023/04/07 05:19:26;;;;;;;;;;;5.60;99.90;;;;;;6213631;23;19904;-87
2023/04/07 05:21:51;;;;;;;;;;;5.60;99.90;;;;;;6235502;23;19904;-89
2023/04/07 05:24:17;;;;;;;;;;;5.50;99.90;;;;;;6212596;23;19915;-89
2023/04/07 05:26:42;;;;;;;;;;;5.70;99.90;;;;;;6212606;23;19904;-89
2023/04/07 05:29:08;;;;;;;;;;;5.70;99.90;;;;;;6212185;23;20325;-89
2023/04/07 05:31:36;;;;;;;;;;;5.70;99.90;;;;;;6212178;23;19904;-88
2023/04/07 05:34:01;;;;;;;;;;;6.00;99.90;;;;;;6210622;23;19911;-89
2023/04/07 05:36:27;;;;;;;;;;;6.00;99.90;;;;;;6212821;23;19904;-89
2023/04/07 05:38:52;;;;;;;;;;;6.00;99.90;;;;;;6210442;23;19904;-88
2023/04/07 05:41:18;;;;;;;;;;;6.00;99.90;;;;;;6210774;23;19904;-88
2023/04/07 05:43:43;;;;;;;;;;;5.90;99.90;;;;;;6212081;23;19912;-88
2023/04/07 05:46:09;;;;;;;;;;;5.70;99.90;;;;;;6210727;23;19931;-88
2023/04/07 05:48:34;;;;;;;;;;;5.70;99.90;;;;;;6211653;23;19904;-89
2023/04/07 05:51:00;;;;;;;;;;;5.70;99.90;;;;;;6212486;23;19908;-89
2023/04/07 05:53:25;;;;;;;;;;;5.70;99.90;;;;;;6211871;23;19911;-87
2023/04/07 05:55:51;;;;;;;;;;;6.80;99.90;;;;;;6212201;23;20124;-88
2023/04/07 05:58:16;;;;;;;;;;;5.60;99.90;;;;;;6212243;23;20221;-88
2023/04/07 06:00:42;;;;;;;;;;;5.60;99.90;;;;;;6212320;23;19904;-91
2023/04/07 06:03:07;;;;;;;;;;;5.50;99.90;;;;;;6211675;23;19912;-88
2023/04/07 06:05:33;;;;;;;;;;;5.40;99.90;;;;;;6211566;23;20336;-91
2023/04/07 06:07:59;;;;;;;;;;;5.30;99.90;;;;;;6213123;23;19952;-88
2023/04/07 06:10:25;;;;;;;;;;;5.20;99.90;;;;;;6212417;23;19911;-87
2023/04/07 06:12:50;;;;;;;;;;;5.10;99.90;;;;;;6212337;23;19908;-91
2023/04/07 06:15:16;;;;;;;;;;;5.00;99.90;;;;;;6212062;23;19990;-87
2023/04/07 06:17:44;;;;;;;;;;;4.90;99.90;;;;;;6212010;23;19939;-90
2023/04/07 06:20:10;;;;;;;;;;;4.80;99.90;;;;;;6211838;23;19904;-87
2023/04/07 06:22:36;;;;;;;;;;;4.80;99.90;;;;;;6211669;23;19915;-88
2023/04/07 06:25:01;;;;;;;;;;;5.00;99.90;;;;;;6212596;23;19904;-90
2023/04/07 06:27:27;;;;;;;;;;;5.00;99.90;;;;;;6211818;23;19918;-89
2023/04/07 06:29:52;;;;;;;;;;;4.90;99.90;;;;;;6210399;23;20742;-90
2023/04/07 06:32:19;;;;;;;;;;;4.80;99.90;;;;;;6212131;23;20301;-87
2023/04/07 06:34:44;;;;;;;;;;;5.00;99.90;;;;;;6235388;23;20321;-90
2023/04/07 06:37:10;;;;;;;;;;;5.10;99.90;;;;;;6211529;23;19915;-89
2023/04/07 06:39:37;;;;;;;;;;;5.00;99.90;;;;;;6235618;23;20320;-87
2023/04/07 06:42:02;;;;;;;;;;;5.30;99.90;;;;;;6212975;23;19943;-89
2023/04/07 06:44:28;;;;;;;;;;;5.40;99.90;;;;;;6211823;23;19904;-89
2023/04/07 06:46:54;;;;;;;;;;;5.40;99.90;;;;;;6208734;23;20107;-88
2023/04/07 06:49:19;;;;;;;;;;;5.80;99.90;;;;;;6211552;23;19904;-88
2023/04/07 06:51:45;;;;;;;;;;;5.80;99.90;;;;;;6211299;23;20333;-87
2023/04/07 06:54:12;;;;;;;;;;;5.70;99.90;;;;;;6235098;23;19997;-88
2023/04/07 06:56:41;;;;;;;;;;;5.70;99.90;;;;;;6211537;23;20391;-88
2023/04/07 06:59:07;;;;;;;;;;;5.60;99.90;;;;;;6211409;23;19911;-89
2023/04/07 07:01:33;;;;;;;;;;;5.60;99.90;;;;;;6210352;23;19904;-87
2023/04/07 07:04:02;;;;;;;;;;;5.80;99.90;;;;;;6211069;23;19911;-87
2023/04/07 07:06:27;;;;;;;;;;;5.80;99.90;;;;;;6235300;23;19903;-87
2023/04/07 07:08:53;;;;;;;;;;;5.80;99.90;;;;;;6211078;23;19911;-88
2023/04/07 07:11:18;;;;;;;;;;;6.10;99.90;;;;;;6211638;23;19907;-88
2023/04/07 07:13:44;;;;;;;;;;;6.10;99.90;;;;;;6211192;23;19904;-88
2023/04/07 07:16:11;;;;;;;;;;;5.70;99.90;;;;;;6209311;23;20240;-87
2023/04/07 07:18:37;;;;;;;;;;;6.20;99.90;;;;;;6210040;23;19904;-88
2023/04/07 07:21:02;;;;;;;;;;;6.20;99.90;;;;;;6212118;23;19904;-87
2023/04/07 07:23:28;;;;;;;;;;;6.30;99.90;;;;;;6211242;23;19919;-87
2023/04/07 07:25:53;;;;;;;;;;;6.50;99.90;;;;;;6211199;23;20021;-88
2023/04/07 07:28:20;;;;;;;;;;;6.40;99.90;;;;;;6211096;23;20284;-87
2023/04/07 07:30:47;;;;;;;;;;;6.50;99.90;;;;;;6210681;23;20369;-88
2023/04/07 07:33:13;;;;;;;;;;;6.80;99.90;;;;;;6209488;23;19974;-88
2023/04/07 07:35:39;;;;;;;;;;;6.90;99.90;;;;;;6210418;23;20348;-88
2023/04/07 07:38:05;;;;;;;;;;;7.10;99.90;;;;;;6212202;23;19912;-88
2023/04/07 07:40:30;;;;;;;;;;;7.30;99.90;;;;;;6211138;23;19907;-88
2023/04/07 07:42:56;;;;;;;;;;;7.40;99.90;;;;;;6210970;23;20246;-88
2023/04/07 07:45:21;;;;;;;;;;;7.50;99.90;;;;;;6234688;23;19950;-88
2023/04/07 07:47:47;;;;;;;;;;;7.90;99.90;;;;;;6210983;23;19961;-88
2023/04/07 07:50:12;;;;;;;;;;;7.90;99.90;;;;;;6209271;23;19915;-88
2023/04/07 07:52:38;;;;;;;;;;;8.20;99.90;;;;;;6211372;23;19951;-87
2023/04/07 07:55:03;;;;;;;;;;;8.40;99.90;;;;;;6212061;23;19904;-88
2023/04/07 07:57:30;;;;;;;;;;;8.60;99.90;;;;;;6208794;23;19904;-88
2023/04/07 07:59:56;;;;;;;;;;;8.70;99.90;;;;;;6211076;23;19910;-88
2023/04/07 08:02:25;;;;;;;;;;;8.90;99.90;;;;;;6210716;23;19991;-87
2023/04/07 08:04:50;;;;;;;;;;;9.10;99.90;;;;;;6209161;23;20112;-88
2023/04/07 08:07:16;;;;;;;;;;;9.20;99.90;;;;;;6209480;23;19979;-87
2023/04/07 08:09:41;;;;;;;;;;;9.30;99.90;;;;;;6234520;23;19904;-88
2023/04/07 08:12:07;;;;;;;;;;;9.40;99.90;;;;;;6235543;23;19904;-88
2023/04/07 08:14:32;;;;;;;;;;;9.50;99.90;;;;;;6210931;23;20280;-88
2023/04/07 08:16:58;;;;;;;;;;;9.60;99.90;;;;;;6208849;23;19935;-87
2023/04/07 08:19:23;;;;;;;;;;;9.40;99.90;;;;;;6210204;23;19908;-89
2023/04/07 08:21:49;;;;;;;;;;;9.50;99.90;;;;;;6210901;23;19911;-89
2023/04/07 08:24:14;;;;;;;;;;;9.40;99.90;;;;;;6210899;23;20411;-87
2023/04/07 08:26:40;;;;;;;;;;;9.50;99.90;;;;;;6211904;23;19904;-88
2023/04/07 08:29:05;;;;;;;;;;;9.60;99.90;;;;;;6213931;23;19904;-88
2023/04/07 08:31:31;;;;;;;;;;;9.90;99.90;;;;;;6212657;23;19904;-87
2023/04/07 08:33:57;;;;;;;;;;;9.80;99.90;;;;;;6212185;23;19904;-88
2023/04/07 08:36:23;;;;;;;;;;;9.80;99.90;;;;;;6213023;23;19954;-89
2023/04/07 08:38:49;;;;;;;;;;;10.00;99.90;;;;;;6212909;23;19908;-88
2023/04/07 08:41:23;;;;;;;;;;;10.10;99.90;;;;;;6236357;23;20290;-87
2023/04/07 08:43:49;;;;;;;;;;;10.20;99.90;;;;;;6212677;23;19912;-90
2023/04/07 08:46:15;;;;;;;;;;;10.30;99.90;;;;;;6212763;23;19984;-87
2023/04/07 08:48:42;;;;;;;;;;;10.40;99.90;;;;;;6211892;23;19904;-88
2023/04/07 08:51:09;;;;;;;;;;;10.60;99.90;;;;;;6213967;23;19903;-89
2023/04/07 08:53:36;;;;;;;;;;;10.90;99.90;;;;;;6212823;23;20390;-90
2023/04/07 08:56:03;;;;;;;;;;;10.50;99.90;;;;;;6212616;23;19939;-88
2023/04/07 08:58:29;;;;;;;;;;;10.70;99.90;;;;;;6212739;23;19904;-87
2023/04/07 09:00:54;;;;;;;;;;;10.60;99.90;;;;;;6210731;23;19911;-87
2023/04/07 09:03:21;;;;;;;;;;;10.40;99.90;;;;;;6212585;23;19912;-87
2023/04/07 09:05:48;;;;;;;;;;;10.40;99.90;;;;;;6212565;23;19939;-87
2023/04/07 09:08:13;;;;;;;;;;;10.50;99.90;;;;;;6212170;23;19915;-88
2023/04/07 09:10:39;;;;;;;;;;;10.60;99.90;;;;;;6213524;23;19904;-88
2023/04/07 09:13:05;;;;;;;;;;;10.30;99.90;;;;;;6212227;23;19904;-87
2023/04/07 09:15:33;;;;;;;;;;;10.50;99.90;;;;;;6212254;23;20392;-88
2023/04/07 09:17:58;;;;;;;;;;;10.80;99.90;;;;;;6212385;23;19904;-87
2023/04/07 09:20:24;;;;;;;;;;;10.70;99.90;;;;;;6236003;23;19904;-87
2023/04/07 09:22:50;;;;;;;;;;;10.50;99.90;;;;;;6212229;23;20384;-87
2023/04/07 09:25:15;;;;;;;;;;;10.30;99.90;;;;;;6210599;23;19931;-87
2023/04/07 09:27:52;;;;;;;;;;;10.30;99.90;;;;;;6236722;23;19923;-87
2023/04/07 09:30:18;;;;;;;;;;;10.50;99.90;;;;;;6211538;23;19911;-86
2023/04/07 09:32:43;;;;;;;;;;;10.70;99.90;;;;;;6212204;23;19904;-87
2023/04/07 09:35:09;;;;;;;;;;;10.80;99.90;;;;;;6211519;23;19904;-86
2023/04/07 09:37:35;;;;;;;;;;;10.90;99.90;;;;;;6212154;23;20383;-87
2023/04/07 09:40:00;;;;;;;;;;;10.80;99.90;;;;;;6212107;23;20337;-88
2023/04/07 09:42:29;;;;;;;;;;;11.00;99.90;;;;;;6212296;23;19915;-87
2023/04/07 09:44:55;;;;;;;;;;;11.30;99.90;;;;;;6211303;23;19907;-87
2023/04/07 09:47:25;;;;;;;;;;;11.30;99.90;;;;;;6210565;23;20370;-88
2023/04/07 09:49:53;;;;;;;;;;;11.60;99.90;;;;;;6212137;23;19904;-87
2023/04/07 09:52:22;;;;;;;;;;;11.80;99.90;;;;;;6212143;23;19983;-88
2023/04/07 09:54:48;;;;;;;;;;;11.90;99.90;;;;;;6211974;23;20002;-87
2023/04/07 09:57:13;;;;;;;;;;;12.00;99.90;;;;;;6212898;23;20333;-87
2023/04/07 09:59:41;;;;;;;;;;;12.20;99.90;;;;;;6211139;23;20328;-87
2023/04/07 10:02:07;;;;;;;;;;;12.00;99.90;;;;;;6209457;23;19908;-87
2023/04/07 10:04:32;;;;;;;;;;;11.80;99.90;;;;;;6212138;23;19995;-88
2023/04/07 10:06:59;;;;;;;;;;;11.80;99.90;;;;;;6210242;23;19911;-87
2023/04/07 10:09:25;;;;;;;;;;;12.00;99.90;;;;;;6211675;23;19904;-88
2023/04/07 10:11:51;;;;;;;;;;;12.20;99.90;;;;;;6211783;23;19970;-87
2023/04/07 10:14:17;;;;;;;;;;;12.50;99.90;;;;;;6211588;23;19904;-87
2023/04/07 10:16:45;;;;;;;;;;;12.50;99.90;;;;;;6212895;23;19950;-87
2023/04/07 10:19:12;;;;;;;;;;;12.40;99.90;;;;;;6212559;23;20284;-87
2023/04/07 10:21:38;;;;;;;;;;;12.60;99.90;;;;;;6211677;23;19904;-87
2023/04/07 10:24:04;;;;;;;;;;;12.60;99.90;;;;;;6211087;23;19912;-87
2023/04/07 10:26:32;;;;;;;;;;;12.60;99.90;;;;;;6235032;23;19911;-87
2023/04/07 10:29:01;;;;;;;;;;;12.50;99.90;;;;;;6209762;23;19912;-88
2023/04/07 10:31:27;;;;;;;;;;;12.40;99.90;;;;;;6211235;23;19958;-87
2023/04/07 10:33:53;;;;;;;;;;;12.30;99.90;;;;;;6211282;23;19903;-87
2023/04/07 10:36:19;;;;;;;;;;;12.00;99.90;;;;;;6211891;23;19932;-87
2023/04/07 10:39:03;;;;;;;;;;;12.00;99.90;;;;;;6213030;23;20368;-87
2023/04/07 10:41:33;;;;;;;;;;;12.20;99.90;;;;;;6211638;23;19954;-90
2023/04/07 10:43:59;;;;;;;;;;;11.40;99.90;;;;;;6211546;23;19918;-87
2023/04/07 10:46:24;;;;;;;;;;;12.60;99.90;;;;;;6211127;23;20311;-87
2023/04/07 10:49:09;;;;;;;;;;;12.70;99.90;;;;;;6211370;23;19951;-89
2023/04/07 10:51:34;;;;;;;;;;;12.50;99.90;;;;;;6211422;23;19904;-88
2023/04/07 10:54:15;;;;;;;;;;;12.40;99.90;;;;;;6211541;23;19927;-87
2023/04/07 10:57:01;;;;;;;;;;;12.60;99.90;;;;;;6211600;23;20352;-89
2023/04/07 10:59:27;;;;;;;;;;;12.40;99.90;;;;;;6211657;23;19910;-88
2023/04/07 11:02:11;;;;;;;;;;;12.30;99.90;;;;;;6210090;23;19978;-88
2023/04/07 11:04:37;;;;;;;;;;;12.50;99.90;;;;;;6235310;23;19908;-89
2023/04/07 11:07:02;;;;;;;;;;;12.30;99.90;;;;;;6210384;23;20300;-87
2023/04/07 11:09:28;;;;;;;;;;;12.30;99.90;;;;;;6211407;23;19935;-87
2023/04/07 11:11:53;;;;;;;;;;;12.50;99.90;;;;;;6211341;23;19904;-87
2023/04/07 11:14:45;;;;;;;;;;;12.50;99.90;;;;;;6211440;23;19950;-88
2023/04/07 11:17:13;;;;;;;;;;;12.70;99.90;;;;;;6209175;23;19986;-88
2023/04/07 11:19:51;;;;;;;;;;;12.70;99.90;;;;;;6211373;23;20222;-87
2023/04/07 11:22:17;;;;;;;;;;;13.10;99.90;;;;;;6212098;23;19966;-88
2023/04/07 11:24:44;;;;;;;;;;;13.00;99.90;;;;;;6211115;23;20321;-88
2023/04/07 11:27:13;;;;;;;;;;;13.00;99.90;;;;;;6211304;23;19934;-88
2023/04/07 11:29:38;;;;;;;;;;;12.80;99.90;;;;;;6209558;23;19934;-88
2023/04/07 11:32:04;;;;;;;;;;;12.80;99.90;;;;;;6210663;23;20280;-88
2023/04/07 11:34:30;;;;;;;;;;;12.80;99.90;;;;;;6210763;23;19912;-87
2023/04/07 11:36:58;;;;;;;;;;;12.40;99.90;;;;;;6211124;23;19903;-87
2023/04/07 11:39:26;;;;;;;;;;;12.70;99.90;;;;;;6209415;23;19904;-87
2023/04/07 11:41:52;;;;;;;;;;;12.60;99.90;;;;;;6211113;23;20325;-87
2023/04/07 11:44:18;;;;;;;;;;;12.80;99.90;;;;;;6212552;23;19995;-87
2023/04/07 11:46:53;;;;;;;;;;;12.90;99.90;;;;;;6211090;23;19936;-88
2023/04/07 11:49:19;;;;;;;;;;;13.20;99.90;;;;;;6209949;23;19931;-88
2023/04/07 11:51:45;;;;;;;;;;;13.20;99.90;;;;;;6210833;23;19926;-86
2023/04/07 11:54:11;;;;;;;;;;;13.30;99.90;;;;;;6209602;23;19916;-87
2023/04/07 11:56:40;;;;;;;;;;;13.40;99.90;;;;;;6211081;23;19935;-88
2023/04/07 11:59:06;;;;;;;;;;;13.30;99.90;;;;;;6211206;23;19904;-88
2023/04/07 12:01:39;;;;;;;;;;;13.40;99.90;;;;;;6210424;23;19908;-87
2023/04/07 12:04:05;;;;;;;;;;;13.10;99.90;;;;;;6210308;23;19968;-86
2023/04/07 12:06:37;;;;;;;;;;;12.90;99.90;;;;;;6210794;23;20063;-87
2023/04/07 12:09:02;;;;;;;;;;;12.90;99.90;;;;;;6211067;23;19983;-86
2023/04/07 12:11:28;;;;;;;;;;;12.80;99.90;;;;;;6234665;23;19990;-89
2023/04/07 12:13:55;;;;;;;;;;;13.10;99.90;;;;;;6210972;23;19911;-88
2023/04/07 12:16:21;;;;;;;;;;;13.20;99.90;;;;;;6210208;23;19904;-88
2023/04/07 12:18:48;;;;;;;;;;;13.40;99.90;;;;;;6234965;23;20230;-87
2023/04/07 12:21:13;;;;;;;;;;;13.50;99.90;;;;;;6211069;23;19910;-87
2023/04/07 12:23:39;;;;;;;;;;;13.50;99.90;;;;;;6211239;23;19994;-88
2023/04/07 12:26:05;;;;;;;;;;;13.10;99.90;;;;;;6209278;23;19911;-87
2023/04/07 12:28:30;;;;;;;;;;;12.80;99.90;;;;;;6209006;23;19979;-87
2023/04/07 12:30:56;;;;;;;;;;;12.70;99.90;;;;;;6234466;23;19904;-87
2023/04/07 12:33:22;;;;;;;;;;;12.70;99.90;;;;;;6211743;23;19908;-87
2023/04/07 12:35:48;;;;;;;;;;;12.90;99.90;;;;;;6210308;23;19919;-87
2023/04/07 12:38:13;;;;;;;;;;;13.20;99.90;;;;;;6210668;23;20743;-87
2023/04/07 12:40:39;;;;;;;;;;;13.30;99.90;;;;;;6210813;23;19938;-88
2023/04/07 12:43:05;;;;;;;;;;;13.30;99.90;;;;;;6210808;23;19912;-88
2023/04/07 12:45:31;;;;;;;;;;;13.40;99.90;;;;;;6209070;23;19904;-88
2023/04/07 12:47:57;;;;;;;;;;;13.60;99.90;;;;;;6210708;23;19926;-87
2023/04/07 12:50:24;;;;;;;;;;;13.60;99.90;;;;;;6209838;23;20320;-87
2023/04/07 12:52:53;;;;;;;;;;;13.50;99.90;;;;;;6210742;23;19904;-88
2023/04/07 12:55:19;;;;;;;;;;;13.70;99.90;;;;;;6211302;23;20288;-87
2023/04/07 12:57:44;;;;;;;;;;;13.70;99.90;;;;;;6209176;23;19907;-87
2023/04/07 13:00:10;;;;;;;;;;;13.60;99.90;;;;;;6210823;23;20007;-87
2023/04/07 13:02:36;;;;;;;;;;;13.70;99.90;;;;;;6210629;23;19946;-88
2023/04/07 13:05:02;;;;;;;;;;;13.90;99.90;;;;;;6211296;23;19962;-90
2023/04/07 13:07:27;;;;;;;;;;;13.80;99.90;;;;;;6210780;23;19904;-89
2023/04/07 13:09:53;;;;;;;;;;;13.90;99.90;;;;;;6235527;23;19928;-88
2023/04/07 13:12:19;;;;;;;;;;;13.80;99.90;;;;;;6211001;23;19950;-88
2023/04/07 13:14:45;;;;;;;;;;;13.80;99.90;;;;;;6212753;23;19904;-87
2023/04/07 13:17:10;;;;;;;;;;;13.90;99.90;;;;;;6210493;23;19983;-88
2023/04/07 13:19:36;;;;;;;;;;;13.80;99.90;;;;;;6212562;23;19904;-87
2023/04/07 13:22:01;;;;;;;;;;;13.80;99.90;;;;;;6236059;23;20344;-87
2023/04/07 13:24:27;;;;;;;;;;;13.80;99.90;;;;;;6211184;23;19987;-88
2023/04/07 13:26:53;;;;;;;;;;;13.90;99.90;;;;;;6213258;23;19908;-88
2023/04/07 13:29:18;;;;;;;;;;;14.00;99.90;;;;;;6210473;23;19958;-87
2023/04/07 13:31:47;;;;;;;;;;;13.80;99.90;;;;;;6212286;23;19904;-87
2023/04/07 13:34:13;;;;;;;;;;;13.90;99.90;;;;;;6212461;23;20285;-87
2023/04/07 13:36:38;;;;;;;;;;;13.80;99.90;;;;;;6236439;23;19942;-87
2023/04/07 13:39:04;;;;;;;;;;;13.70;99.90;;;;;;6212244;23;19904;-87
2023/04/07 13:41:30;;;;;;;;;;;13.90;99.90;;;;;;6212028;23;19910;-87
2023/04/07 13:43:57;;;;;;;;;;;13.90;99.90;;;;;;6213015;23;19995;-87
2023/04/07 13:46:23;;;;;;;;;;;14.00;99.90;;;;;;6212857;23;19908;-87
2023/04/07 13:48:49;;;;;;;;;;;14.10;99.90;;;;;;6211795;23;19904;-87
2023/04/07 13:51:15;;;;;;;;;;;14.20;99.90;;;;;;6211901;23;20311;-87
2023/04/07 13:53:41;;;;;;;;;;;14.40;99.90;;;;;;6212059;23;19935;-87
2023/04/07 13:56:07;;;;;;;;;;;14.50;99.90;;;;;;6212056;23;19911;-87
2023/04/07 13:58:36;;;;;;;;;;;14.40;99.90;;;;;;6211934;23;19904;-87
2023/04/07 14:01:02;;;;;;;;;;;14.40;99.90;;;;;;6211848;23;19904;-88
2023/04/07 14:03:28;;;;;;;;;;;14.30;99.90;;;;;;6212658;23;19919;-87
2023/04/07 14:05:54;;;;;;;;;;;14.40;99.90;;;;;;6211361;23;19911;-89
2023/04/07 14:08:22;;;;;;;;;;;14.30;99.90;;;;;;6210291;23;19904;-88
2023/04/07 14:10:48;;;;;;;;;;;14.40;99.90;;;;;;6212006;23;19915;-87
2023/04/07 14:13:13;;;;;;;;;;;14.50;99.90;;;;;;6211799;23;19904;-87
2023/04/07 14:15:39;;;;;;;;;;;14.50;99.90;;;;;;6210090;23;19904;-87
2023/04/07 14:18:05;;;;;;;;;;;14.50;99.90;;;;;;6211970;23;19904;-88
2023/04/07 14:20:30;;;;;;;;;;;14.50;99.90;;;;;;6210322;23;19935;-89
2023/04/07 14:22:56;;;;;;;;;;;14.50;99.90;;;;;;6212046;23;19974;-87